Time;durP1;ratioP1;P1;durP2;ratioP2;P2;SDS_P1;SDS_P2;PMS_P1;PMS_P2;Temp;Humidity;BMP_temperature;BMP_pressure;BME280_temperature;BME280_humidity;BME280_pressure;Samples;Min_cycle;Max_cycle;Signal;HPM_P1;HPM_P2
2021/06/02 02:12:36;;;;;;;;;;;;;;;12.11;89.34;99343.28;5487124;22;19979;-81
2021/06/02 02:15:20;;;;;;;;;;;;;;;12.22;90.19;99353.31;5016949;28;19921;-82
2021/06/02 02:17:54;;;;;;;;;;;;;;;12.54;87.87;99353.25;5016314;28;20396;-81
2021/06/02 02:20:33;;;;;;;;;;;;;;;12.27;89.03;99356.53;5016912;28;19921;-80
2021/06/02 02:23:22;;;;;;;;;;;;;;;12.23;89.83;99362.13;5016665;28;19921;-81
2021/06/02 02:25:52;;;;;;;;;;;;;;;12.28;89.50;99363.56;4981195;28;20000;-83
2021/06/02 02:28:29;;;;;;;;;;;;;;;12.13;89.91;99359.97;5017454;28;20365;-81
2021/06/02 02:31:07;;;;;;;;;;;;;;;12.12;90.41;99355.59;5016002;28;19921;-81
2021/06/02 02:33:41;;;;;;;;;;;;;;;12.03;90.75;99360.56;5016217;28;19921;-79
2021/06/02 02:36:10;;;;;;;;;;;;;;;12.10;90.59;99361.94;5016571;28;19929;-80
2021/06/02 02:38:35;;;;;;;;;;;;;;;12.09;90.67;99357.56;5016998;28;19921;-81
2021/06/02 02:41:09;;;;;;;;;;;;;;;12.09;90.80;99363.72;5016985;28;19921;-80
2021/06/02 02:43:48;;;;;;;;;;;;;;;12.01;91.11;99360.66;5016975;28;19925;-80
2021/06/02 02:46:39;;;;;;;;;;;;;;;12.04;91.55;99357.81;5016718;28;19921;-80
2021/06/02 02:49:16;;;;;;;;;;;;;;;11.96;91.53;99357.41;5012328;28;19921;-80
2021/06/02 02:51:44;;;;;;;;;;;;;;;11.96;91.74;99360.91;4999663;28;19925;-80
2021/06/02 02:54:18;;;;;;;;;;;;;;;12.04;91.29;99360.47;4999577;28;20542;-80
2021/06/02 02:56:44;;;;;;;;;;;;;;;12.25;90.74;99368.19;5016057;28;19921;-84
2021/06/02 02:59:12;;;;;;;;;;;;;;;12.37;90.54;99367.50;4999237;28;19921;-83
2021/06/02 03:01:41;;;;;;;;;;;;;;;12.42;90.40;99365.44;5015283;28;19936;-81
2021/06/02 03:04:21;;;;;;;;;;;;;;;12.56;90.07;99367.31;5014717;28;20236;-82
2021/06/02 03:06:53;;;;;;;;;;;;;;;12.72;88.83;99369.94;5015921;28;20304;-83
2021/06/02 03:09:27;;;;;;;;;;;;;;;12.81;88.51;99361.44;5016400;28;19921;-83
2021/06/02 03:11:58;;;;;;;;;;;;;;;12.83;88.27;99374.63;5016326;28;19921;-83
2021/06/02 03:14:57;;;;;;;;;;;;;;;12.83;88.11;99370.16;5015757;28;19922;-81
2021/06/02 03:17:40;;;;;;;;;;;;;;;12.81;88.21;99366.75;4982223;28;20235;-83
2021/06/02 03:20:18;;;;;;;;;;;;;;;12.78;88.19;99366.91;4998975;28;19913;-82
2021/06/02 03:23:02;;;;;;;;;;;;;;;12.78;88.20;99369.56;5016162;28;20008;-82
2021/06/02 03:25:34;;;;;;;;;;;;;;;12.74;88.54;99368.03;5015512;28;19961;-83
2021/06/02 03:28:12;;;;;;;;;;;;;;;12.59;89.00;99366.25;5015993;28;19933;-82
2021/06/02 03:30:51;;;;;;;;;;;;;;;12.44;89.62;99371.50;5015925;28;20020;-83
2021/06/02 03:33:28;;;;;;;;;;;;;;;12.22;90.25;99373.66;5015439;28;20359;-83
2021/06/02 03:36:26;;;;;;;;;;;;;;;12.04;91.42;99368.44;5015072;28;19921;-83
2021/06/02 03:38:54;;;;;;;;;;;;;;;11.90;92.27;99377.16;4982098;28;19936;-84
2021/06/02 03:41:28;;;;;;;;;;;;;;;11.86;92.49;99382.72;5016306;28;20243;-82
2021/06/02 03:44:02;;;;;;;;;;;;;;;11.72;93.27;99384.31;5015909;28;20023;-83
2021/06/02 03:46:27;;;;;;;;;;;;;;;11.77;93.60;99382.25;5015434;28;19925;-82
2021/06/02 03:49:11;;;;;;;;;;;;;;;11.73;93.56;99388.69;4998266;28;19933;-82
2021/06/02 03:51:45;;;;;;;;;;;;;;;11.96;93.24;99378.63;5016101;28;19928;-82
2021/06/02 03:54:20;;;;;;;;;;;;;;;11.94;93.21;99385.84;5014832;28;19956;-81
2021/06/02 03:56:51;;;;;;;;;;;;;;;11.93;93.19;99389.41;4996928;28;19980;-83
2021/06/02 03:59:28;;;;;;;;;;;;;;;11.74;93.86;99390.41;4999459;28;19932;-82
2021/06/02 04:01:55;;;;;;;;;;;;;;;11.75;94.26;99402.72;4999865;28;19922;-80
2021/06/02 04:04:21;;;;;;;;;;;;;;;11.87;94.11;99406.53;5017433;28;19936;-80
2021/06/02 04:06:58;;;;;;;;;;;;;;;11.73;94.34;99401.97;4999733;28;20403;-83
2021/06/02 04:09:28;;;;;;;;;;;;;;;11.97;93.83;99402.44;5017502;28;19921;-81
2021/06/02 04:11:53;;;;;;;;;;;;;;;11.98;93.85;99403.28;5017386;28;19934;-81
2021/06/02 04:14:45;;;;;;;;;;;;;;;12.12;93.15;99411.34;5017843;28;19921;-82
2021/06/02 09:35:17;;;;;;;;;;;;;;;12.98;95.21;99434.03;5326009;22;19936;-84
2021/06/02 09:37:50;;;;;;;;;;;;;;;13.02;96.78;99428.44;5004194;28;19926;-79
2021/06/02 09:40:24;;;;;;;;;;;;;;;13.11;96.07;99420.84;4994580;28;20264;-80
2021/06/02 09:42:49;;;;;;;;;;;;;;;13.16;95.41;99432.06;4973956;28;19933;-80
2021/06/02 09:45:15;;;;;;;;;;;;;;;13.18;95.36;99425.72;4990600;28;20437;-81
2021/06/02 09:47:42;;;;;;;;;;;;;;;13.23;95.53;99420.13;4991421;28;20213;-82
2021/06/02 09:50:08;;;;;;;;;;;;;;;13.17;95.38;99424.00;4984210;28;20553;-80
2021/06/02 09:52:39;;;;;;;;;;;;;;;13.19;95.47;99426.56;4984196;28;20052;-80
2021/06/02 09:55:12;;;;;;;;;;;;;;;13.33;96.04;99429.31;4989669;28;20012;-78
2021/06/02 09:57:37;;;;;;;;;;;;;;;13.22;95.08;99418.41;4986729;28;21265;-83
2021/06/02 10:00:04;;;;;;;;;;;;;;;13.27;96.14;99417.19;4984174;28;20006;-82
2021/06/02 10:02:29;;;;;;;;;;;;;;;13.29;95.15;99418.91;4980325;28;20010;-83
2021/06/02 10:05:13;;;;;;;;;;;;;;;13.31;96.11;99417.03;4987533;28;20394;-84
2021/06/02 10:07:46;;;;;;;;;;;;;;;13.42;95.59;99420.78;4990267;28;19962;-81
2021/06/02 10:10:20;;;;;;;;;;;;;;;13.37;95.51;99427.31;4964197;28;19926;-82
2021/06/02 10:13:09;;;;;;;;;;;;;;;13.35;96.05;99418.56;4964415;28;20264;-80
2021/06/02 10:15:38;;;;;;;;;;;;;;;13.35;95.70;99422.06;4978506;28;19922;-91
2021/06/02 10:18:05;;;;;;;;;;;;;;;13.32;96.78;99421.38;4974755;28;20391;-86
2021/06/02 10:20:31;;;;;;;;;;;;;;;13.55;95.31;99420.88;4987819;28;20347;-83
2021/06/02 10:22:58;;;;;;;;;;;;;;;13.39;94.79;99412.97;4971456;28;19926;-81
2021/06/02 10:25:24;;;;;;;;;;;;;;;13.21;96.51;99412.25;4985397;28;20366;-82
2021/06/02 10:27:54;;;;;;;;;;;;;;;13.34;96.05;99408.84;4984372;28;20008;-81
2021/06/02 10:30:21;;;;;;;;;;;;;;;13.20;94.67;99407.00;4980439;28;19953;-83
2021/06/02 10:32:47;;;;;;;;;;;;;;;13.26;97.23;99409.31;4964833;28;19930;-82
2021/06/02 10:35:13;;;;;;;;;;;;;;;13.28;96.48;99412.72;4980488;28;19949;-82
2021/06/02 10:37:42;;;;;;;;;;;;;;;13.44;96.16;99415.34;4983028;28;19929;-82
2021/06/02 10:40:17;;;;;;;;;;;;;;;13.60;96.37;99407.28;4980179;28;20310;-82
2021/06/02 10:42:48;;;;;;;;;;;;;;;13.50;96.63;99408.78;4994491;28;19925;-85
2021/06/02 10:45:20;;;;;;;;;;;;;;;13.74;98.44;99409.13;4983536;28;20011;-82
2021/06/02 10:47:52;;;;;;;;;;;;;;;13.68;96.16;99405.00;4965231;28;19922;-81
2021/06/02 10:50:47;;;;;;;;;;;;;;;13.47;96.89;99412.50;4983402;28;19921;-82
2021/06/02 10:53:19;;;;;;;;;;;;;;;13.53;97.03;99406.81;4960083;28;19933;-81
2021/06/02 10:55:45;;;;;;;;;;;;;;;13.71;97.46;99406.63;4960563;28;19937;-81
2021/06/02 10:58:21;;;;;;;;;;;;;;;13.62;96.61;99395.63;4982450;28;19929;-81
2021/06/02 11:00:48;;;;;;;;;;;;;;;13.66;96.11;99398.94;4982685;28;19930;-82
2021/06/02 11:03:18;;;;;;;;;;;;;;;13.50;95.76;99396.34;4985462;28;19921;-81
2021/06/02 11:05:46;;;;;;;;;;;;;;;13.72;95.78;99395.91;4982227;28;19937;-82
2021/06/02 11:08:12;;;;;;;;;;;;;;;13.68;97.30;99391.69;4981859;28;19921;-82
2021/06/02 11:10:38;;;;;;;;;;;;;;;13.71;97.39;99394.16;4976611;28;19930;-83
2021/06/02 11:13:04;;;;;;;;;;;;;;;13.51;95.41;99395.38;4985127;28;19957;-81
2021/06/02 11:15:48;;;;;;;;;;;;;;;13.39;95.40;99396.16;4967242;28;20305;-81
2021/06/02 11:18:18;;;;;;;;;;;;;;;13.47;97.27;99396.53;4970578;28;19961;-83
2021/06/02 11:20:48;;;;;;;;;;;;;;;13.23;95.69;99399.69;4963859;28;19929;-81
2021/06/02 11:23:15;;;;;;;;;;;;;;;13.44;97.92;99396.72;4983173;28;20016;-80
2021/06/02 11:25:41;;;;;;;;;;;;;;;13.44;96.80;99402.91;4981627;28;19941;-81
2021/06/02 11:28:12;;;;;;;;;;;;;;;13.61;98.03;99399.22;4963830;28;19926;-81
2021/06/02 11:30:38;;;;;;;;;;;;;;;13.63;97.47;99399.97;4984060;28;20020;-81
2021/06/02 11:33:08;;;;;;;;;;;;;;;13.34;97.62;99401.75;4987090;28;20213;-81
2021/06/02 11:35:54;;;;;;;;;;;;;;;13.45;97.30;99395.78;4987810;28;20294;-83
2021/06/02 11:38:20;;;;;;;;;;;;;;;13.52;95.39;99398.94;4968370;28;20348;-82
2021/06/02 11:40:45;;;;;;;;;;;;;;;13.52;97.29;99399.78;4978883;28;19926;-82
2021/06/02 11:43:12;;;;;;;;;;;;;;;13.52;96.34;99397.09;4980977;28;19928;-81
2021/06/02 11:45:42;;;;;;;;;;;;;;;13.59;96.82;99395.78;4982046;28;19940;-82
2021/06/02 11:48:10;;;;;;;;;;;;;;;13.58;96.49;99399.41;4971561;28;19922;-81
2021/06/02 11:50:36;;;;;;;;;;;;;;;13.70;97.28;99397.78;4986416;28;20343;-81
2021/06/02 11:53:05;;;;;;;;;;;;;;;13.70;95.70;99397.78;4982823;28;19930;-81
2021/06/02 11:55:31;;;;;;;;;;;;;;;13.57;96.78;99402.16;4986485;28;20033;-81
2021/06/02 11:57:57;;;;;;;;;;;;;;;13.56;95.75;99389.78;4990332;28;19952;-82
2021/06/02 12:00:29;;;;;;;;;;;;;;;13.52;96.80;99399.78;4984814;28;20385;-81
2021/06/02 12:02:56;;;;;;;;;;;;;;;13.47;96.76;99411.66;4986603;28;19961;-82
2021/06/02 12:05:25;;;;;;;;;;;;;;;13.44;97.95;99410.03;4983746;28;20285;-82
2021/06/02 12:07:53;;;;;;;;;;;;;;;13.56;97.59;99406.63;4986621;28;19921;-81
2021/06/02 12:10:19;;;;;;;;;;;;;;;13.68;97.31;99402.34;4990963;28;19922;-83
2021/06/02 12:12:45;;;;;;;;;;;;;;;13.66;97.19;99395.38;4985463;28;19937;-82
2021/06/02 12:15:11;;;;;;;;;;;;;;;13.24;97.13;99409.41;4986529;28;20470;-81
2021/06/02 12:17:37;;;;;;;;;;;;;;;13.48;98.67;99411.53;4971234;28;20419;-83
2021/06/02 12:20:04;;;;;;;;;;;;;;;13.47;97.14;99404.53;4968318;28;19929;-82
2021/06/02 12:22:30;;;;;;;;;;;;;;;13.49;97.51;99405.28;4984455;28;19928;-80
2021/06/02 12:25:02;;;;;;;;;;;;;;;13.60;97.60;99402.81;4969549;28;19934;-82
2021/06/02 12:27:28;;;;;;;;;;;;;;;13.38;96.07;99407.75;4988194;28;19930;-82
2021/06/02 12:30:13;;;;;;;;;;;;;;;13.50;96.54;99409.66;4975899;28;19925;-82
2021/06/02 12:32:43;;;;;;;;;;;;;;;13.64;98.60;99403.47;4977548;28;19922;-80
